Time;durP1;ratioP1;P1;durP2;ratioP2;P2;SDS_P1;SDS_P2;PMS_P1;PMS_P2;Temp;Humidity;BMP_temperature;BMP_pressure;BME280_temperature;BME280_humidity;BME280_pressure;Samples;Min_cycle;Max_cycle;Signal;HPM_P1;HPM_P2
2022/10/19 00:01:38;;;;;;;;;;;13.50;99.90;;;;;;5090735;28;19909;-75
2022/10/19 00:04:04;;;;;;;;;;;13.40;99.90;;;;;;5092179;28;20324;-76
2022/10/19 00:06:31;;;;;;;;;;;13.50;99.90;;;;;;5091751;28;19950;-75
2022/10/19 00:08:58;;;;;;;;;;;13.60;99.90;;;;;;5092807;28;19908;-73
2022/10/19 00:11:24;;;;;;;;;;;13.50;99.90;;;;;;5092104;28;19908;-76
2022/10/19 00:13:50;;;;;;;;;;;13.50;99.90;;;;;;5092747;28;19912;-76
2022/10/19 00:16:16;;;;;;;;;;;13.50;99.90;;;;;;5092492;28;19908;-75
2022/10/19 00:18:42;;;;;;;;;;;13.40;99.90;;;;;;5091511;28;19916;-75
2022/10/19 00:21:08;;;;;;;;;;;13.50;99.90;;;;;;5092586;28;20268;-75
2022/10/19 00:23:34;;;;;;;;;;;13.50;99.90;;;;;;5091866;28;20161;-75
2022/10/19 00:26:00;;;;;;;;;;;13.50;99.90;;;;;;5092936;28;20338;-76
2022/10/19 00:28:26;;;;;;;;;;;13.40;99.90;;;;;;5079523;28;19966;-74
2022/10/19 00:30:52;;;;;;;;;;;13.50;99.90;;;;;;5072026;28;20454;-75
2022/10/19 00:33:20;;;;;;;;;;;13.50;99.90;;;;;;5071649;28;20285;-76
2022/10/19 00:35:48;;;;;;;;;;;13.50;99.90;;;;;;5072225;28;20459;-74
2022/10/19 00:38:15;;;;;;;;;;;13.50;99.90;;;;;;5071264;28;19961;-75
2022/10/19 00:40:40;;;;;;;;;;;13.50;99.90;;;;;;5073356;28;19962;-74
2022/10/19 00:43:12;;;;;;;;;;;13.50;99.90;;;;;;5091991;28;19908;-74
2022/10/19 00:45:39;;;;;;;;;;;13.60;99.90;;;;;;5095452;28;20214;-74
2022/10/19 00:48:05;;;;;;;;;;;13.60;99.90;;;;;;5096117;28;20349;-75
2022/10/19 00:50:30;;;;;;;;;;;13.60;99.90;;;;;;5095685;28;19915;-76
2022/10/19 00:52:56;;;;;;;;;;;13.50;99.90;;;;;;5094655;28;19908;-76
2022/10/19 00:55:22;;;;;;;;;;;13.60;99.90;;;;;;5095646;28;19915;-75
2022/10/19 00:57:47;;;;;;;;;;;13.50;99.90;;;;;;5095908;28;19965;-76
2022/10/19 01:00:13;;;;;;;;;;;13.50;99.90;;;;;;5095952;28;19951;-77
2022/10/19 01:02:39;;;;;;;;;;;13.40;99.90;;;;;;5095392;28;20110;-81
2022/10/19 01:05:05;;;;;;;;;;;13.30;99.90;;;;;;5095931;28;19912;-81
2022/10/19 01:07:31;;;;;;;;;;;13.40;99.90;;;;;;5095519;28;20494;-80
2022/10/19 01:09:58;;;;;;;;;;;13.30;99.90;;;;;;5096232;28;19908;-79
2022/10/19 01:12:35;;;;;;;;;;;13.20;99.90;;;;;;5095282;28;19908;-78
2022/10/19 01:15:30;;;;;;;;;;;13.20;99.90;;;;;;5095772;28;19908;-78
2022/10/19 01:18:14;;;;;;;;;;;13.20;99.90;;;;;;5081752;28;19912;-77
2022/10/19 01:20:58;;;;;;;;;;;13.10;99.90;;;;;;5095122;28;20016;-76
2022/10/19 01:23:36;;;;;;;;;;;13.10;99.90;;;;;;5095332;28;19908;-76
2022/10/19 01:26:13;;;;;;;;;;;13.20;99.90;;;;;;5109582;28;19912;-77
2022/10/19 01:28:39;;;;;;;;;;;13.10;99.90;;;;;;5095792;28;19916;-76
2022/10/19 01:31:07;;;;;;;;;;;13.00;99.90;;;;;;5094616;28;19954;-76
2022/10/19 01:33:42;;;;;;;;;;;13.10;99.90;;;;;;5102783;28;19930;-77
2022/10/19 01:36:19;;;;;;;;;;;13.20;99.90;;;;;;5106387;28;19908;-78
2022/10/19 01:38:55;;;;;;;;;;;13.10;99.90;;;;;;5094916;28;19973;-77
2022/10/19 01:41:41;;;;;;;;;;;13.10;99.90;;;;;;5093454;28;19908;-77
2022/10/19 01:44:06;;;;;;;;;;;13.00;99.90;;;;;;5093669;28;19909;-80
2022/10/19 01:46:34;;;;;;;;;;;13.20;99.90;;;;;;5094609;28;19915;-79
2022/10/19 01:49:07;;;;;;;;;;;13.10;99.90;;;;;;5094472;28;19908;-80
2022/10/19 01:51:34;;;;;;;;;;;13.10;99.90;;;;;;5094101;28;19909;-77
2022/10/19 01:54:03;;;;;;;;;;;13.00;99.90;;;;;;5094970;28;19912;-77
2022/10/19 01:56:29;;;;;;;;;;;12.90;99.90;;;;;;5094198;28;19909;-77
2022/10/19 01:58:56;;;;;;;;;;;12.90;99.90;;;;;;5093188;28;19950;-77
2022/10/19 02:01:23;;;;;;;;;;;12.90;99.90;;;;;;5094537;28;19912;-77
2022/10/19 02:03:49;;;;;;;;;;;12.90;99.90;;;;;;5093884;28;19912;-77
2022/10/19 02:06:15;;;;;;;;;;;12.80;99.90;;;;;;5093187;28;19912;-77
2022/10/19 02:08:44;;;;;;;;;;;12.90;99.90;;;;;;5093810;28;19908;-77
2022/10/19 02:11:10;;;;;;;;;;;12.90;99.90;;;;;;5093402;28;20360;-77
2022/10/19 02:13:35;;;;;;;;;;;12.80;99.90;;;;;;5094002;28;19908;-77
2022/10/19 02:16:04;;;;;;;;;;;12.90;99.90;;;;;;5094534;28;19908;-76
2022/10/19 02:18:39;;;;;;;;;;;12.90;99.90;;;;;;5093771;28;19912;-77
2022/10/19 02:21:05;;;;;;;;;;;12.90;99.90;;;;;;5094325;28;19919;-76
2022/10/19 02:23:31;;;;;;;;;;;12.80;99.90;;;;;;5092755;28;20450;-77
2022/10/19 02:25:57;;;;;;;;;;;12.90;99.90;;;;;;5094238;28;19965;-76
2022/10/19 02:28:23;;;;;;;;;;;12.90;99.90;;;;;;5093997;28;19914;-76
2022/10/19 02:30:49;;;;;;;;;;;13.00;99.90;;;;;;5093406;28;20383;-76
2022/10/19 02:33:15;;;;;;;;;;;12.90;99.90;;;;;;5094562;28;19922;-77
2022/10/19 02:35:40;;;;;;;;;;;12.90;99.90;;;;;;5094332;28;19999;-75
2022/10/19 02:38:07;;;;;;;;;;;13.00;99.90;;;;;;5094200;28;19950;-75
2022/10/19 02:40:35;;;;;;;;;;;13.00;99.90;;;;;;5093149;28;20259;-76
2022/10/19 02:43:04;;;;;;;;;;;12.90;99.90;;;;;;5093773;28;19908;-76
2022/10/19 02:45:31;;;;;;;;;;;12.90;99.90;;;;;;5093261;28;19915;-76
2022/10/19 02:47:59;;;;;;;;;;;13.00;99.90;;;;;;5093654;28;19916;-75
2022/10/19 02:50:25;;;;;;;;;;;13.00;99.90;;;;;;5093366;28;20285;-76
2022/10/19 02:52:50;;;;;;;;;;;12.90;99.90;;;;;;5093594;28;19909;-75
2022/10/19 02:55:16;;;;;;;;;;;13.00;99.90;;;;;;5109562;28;19908;-75
2022/10/19 02:57:41;;;;;;;;;;;12.90;99.90;;;;;;5093150;28;20000;-76
2022/10/19 03:00:07;;;;;;;;;;;13.00;99.90;;;;;;5093395;28;19916;-76
2022/10/19 03:02:33;;;;;;;;;;;12.90;99.90;;;;;;5092557;28;19950;-76
2022/10/19 03:04:59;;;;;;;;;;;12.90;99.90;;;;;;5093284;28;19961;-76
2022/10/19 03:07:24;;;;;;;;;;;12.90;99.90;;;;;;5093616;28;20277;-76
2022/10/19 03:09:50;;;;;;;;;;;12.90;99.90;;;;;;5090735;28;19912;-76
2022/10/19 03:12:16;;;;;;;;;;;12.90;99.90;;;;;;5093570;28;19908;-76
2022/10/19 03:14:42;;;;;;;;;;;12.90;99.90;;;;;;5092604;28;19908;-76
2022/10/19 03:17:07;;;;;;;;;;;12.90;99.90;;;;;;5093445;28;20402;-76
2022/10/19 03:19:34;;;;;;;;;;;12.90;99.90;;;;;;5091248;28;20029;-76
2022/10/19 03:21:59;;;;;;;;;;;12.90;99.90;;;;;;5093242;28;19940;-76
2022/10/19 03:24:25;;;;;;;;;;;12.90;99.90;;;;;;5093365;28;19912;-76
2022/10/19 03:26:51;;;;;;;;;;;12.80;99.90;;;;;;5093891;28;20415;-75
2022/10/19 03:29:16;;;;;;;;;;;12.90;99.90;;;;;;5108735;28;19908;-76
2022/10/19 03:31:42;;;;;;;;;;;13.00;99.90;;;;;;5092324;28;20344;-76
2022/10/19 03:34:07;;;;;;;;;;;13.00;99.90;;;;;;5089442;28;19961;-75
2022/10/19 03:36:34;;;;;;;;;;;13.00;99.90;;;;;;5072020;28;20254;-75
2022/10/19 03:39:01;;;;;;;;;;;13.00;99.90;;;;;;5071429;28;20073;-75
2022/10/19 03:41:28;;;;;;;;;;;13.00;99.90;;;;;;5072425;28;20281;-75
2022/10/19 03:43:53;;;;;;;;;;;13.10;99.90;;;;;;5072611;28;19915;-75
2022/10/19 03:46:19;;;;;;;;;;;13.00;99.90;;;;;;5072870;28;19908;-75
2022/10/19 03:48:45;;;;;;;;;;;13.00;99.90;;;;;;5071847;28;19931;-76
2022/10/19 03:51:13;;;;;;;;;;;13.00;99.90;;;;;;5072642;28;19908;-76
2022/10/19 03:53:39;;;;;;;;;;;13.00;99.90;;;;;;5072230;28;19995;-75
2022/10/19 03:56:06;;;;;;;;;;;13.10;99.90;;;;;;5072624;28;19934;-76
2022/10/19 03:58:34;;;;;;;;;;;13.10;99.90;;;;;;5072070;28;19932;-76
2022/10/19 04:01:00;;;;;;;;;;;13.10;99.90;;;;;;5072462;28;20384;-76
2022/10/19 04:03:26;;;;;;;;;;;13.00;99.90;;;;;;5072462;28;20011;-76
2022/10/19 04:05:52;;;;;;;;;;;13.10;99.90;;;;;;5071784;28;20330;-75
2022/10/19 04:08:17;;;;;;;;;;;13.10;99.90;;;;;;5072593;28;19916;-76
2022/10/19 04:10:43;;;;;;;;;;;13.10;99.90;;;;;;5071658;28;19908;-76
2022/10/19 04:13:09;;;;;;;;;;;13.00;99.90;;;;;;5072604;28;19912;-76
2022/10/19 04:15:35;;;;;;;;;;;13.00;99.90;;;;;;5074898;28;19995;-76
2022/10/19 04:18:01;;;;;;;;;;;13.00;99.90;;;;;;5076574;28;19990;-75
2022/10/19 04:20:26;;;;;;;;;;;13.00;99.90;;;;;;5076380;28;19916;-75
2022/10/19 04:22:52;;;;;;;;;;;13.00;99.90;;;;;;5074463;28;19909;-75
2022/10/19 04:25:17;;;;;;;;;;;12.90;99.90;;;;;;5076409;28;19908;-76
2022/10/19 04:27:43;;;;;;;;;;;12.90;99.90;;;;;;5075528;28;19958;-76
2022/10/19 04:30:09;;;;;;;;;;;12.80;99.90;;;;;;5074787;28;19908;-77
2022/10/19 04:32:35;;;;;;;;;;;12.80;99.90;;;;;;5074755;28;19924;-79
2022/10/19 04:35:00;;;;;;;;;;;12.70;99.90;;;;;;5075821;28;20346;-83
2022/10/19 04:37:26;;;;;;;;;;;12.70;99.90;;;;;;5076206;28;19919;-83
2022/10/19 04:39:51;;;;;;;;;;;12.70;99.90;;;;;;5074895;28;19917;-84
2022/10/19 04:42:17;;;;;;;;;;;12.60;99.90;;;;;;5075975;28;20332;-85
2022/10/19 04:44:43;;;;;;;;;;;12.60;99.90;;;;;;5075576;28;20440;-84
2022/10/19 04:47:08;;;;;;;;;;;12.70;99.90;;;;;;5075939;28;19908;-83
2022/10/19 04:49:34;;;;;;;;;;;12.60;99.90;;;;;;5075313;28;20002;-80
2022/10/19 04:51:59;;;;;;;;;;;12.60;99.90;;;;;;5074683;28;20003;-77
2022/10/19 04:54:26;;;;;;;;;;;12.60;99.90;;;;;;5057542;28;20290;-83
2022/10/19 04:56:52;;;;;;;;;;;12.60;99.90;;;;;;5073997;28;20544;-84
2022/10/19 04:59:18;;;;;;;;;;;12.60;99.90;;;;;;5074841;28;19924;-82
2022/10/19 05:01:44;;;;;;;;;;;12.50;99.90;;;;;;5075399;28;20211;-84
2022/10/19 05:04:10;;;;;;;;;;;12.60;99.90;;;;;;5074823;28;19966;-88
2022/10/19 05:06:36;;;;;;;;;;;12.60;99.90;;;;;;5075053;28;19919;-85
2022/10/19 05:09:01;;;;;;;;;;;12.60;99.90;;;;;;5075836;28;19909;-86
2022/10/19 05:11:27;;;;;;;;;;;12.60;99.90;;;;;;5074212;28;19915;-82
2022/10/19 05:13:53;;;;;;;;;;;12.50;99.90;;;;;;5073742;28;20747;-82
2022/10/19 05:16:20;;;;;;;;;;;12.60;99.90;;;;;;5075298;28;19909;-77
2022/10/19 05:18:47;;;;;;;;;;;12.40;99.90;;;;;;5074533;28;19932;-76
2022/10/19 05:21:13;;;;;;;;;;;12.50;99.90;;;;;;5075338;28;19916;-78
2022/10/19 05:23:40;;;;;;;;;;;12.50;99.90;;;;;;5074522;28;19944;-78
2022/10/19 05:26:06;;;;;;;;;;;12.50;99.90;;;;;;5074649;28;19916;-76
2022/10/19 05:28:32;;;;;;;;;;;12.50;99.90;;;;;;5075040;28;19932;-77
2022/10/19 05:31:05;;;;;;;;;;;12.50;99.90;;;;;;5074520;28;20342;-76
2022/10/19 05:33:31;;;;;;;;;;;12.50;99.90;;;;;;5075188;28;19983;-76
2022/10/19 05:35:56;;;;;;;;;;;12.60;99.90;;;;;;5074459;28;19916;-76
2022/10/19 05:38:22;;;;;;;;;;;12.60;99.90;;;;;;5074085;28;20350;-75
2022/10/19 05:40:47;;;;;;;;;;;12.50;99.90;;;;;;5074416;28;20003;-75
2022/10/19 05:43:13;;;;;;;;;;;12.50;99.90;;;;;;5074510;28;19954;-75
2022/10/19 05:45:38;;;;;;;;;;;12.50;99.90;;;;;;5074084;28;19916;-76
2022/10/19 05:48:04;;;;;;;;;;;12.40;99.90;;;;;;5074558;28;19916;-79
2022/10/19 05:50:30;;;;;;;;;;;12.40;99.90;;;;;;5074568;28;19909;-85
2022/10/19 05:52:55;;;;;;;;;;;12.50;99.90;;;;;;5073097;28;20327;-86
2022/10/19 05:55:21;;;;;;;;;;;12.40;99.90;;;;;;5073568;28;19915;-85
2022/10/19 05:57:46;;;;;;;;;;;12.40;99.90;;;;;;5074252;28;19916;-85
2022/10/19 06:00:12;;;;;;;;;;;12.40;99.90;;;;;;5074051;28;19917;-86
2022/10/19 06:02:38;;;;;;;;;;;12.40;99.90;;;;;;5074034;28;19955;-85
2022/10/19 06:05:03;;;;;;;;;;;12.40;99.90;;;;;;5073275;28;19919;-87
2022/10/19 06:07:29;;;;;;;;;;;12.40;99.90;;;;;;5074332;28;20380;-86
2022/10/19 06:09:55;;;;;;;;;;;12.50;99.90;;;;;;5072229;28;20369;-84
2022/10/19 06:12:20;;;;;;;;;;;12.50;99.90;;;;;;5074672;28;19909;-80
2022/10/19 06:14:49;;;;;;;;;;;12.50;99.90;;;;;;5073800;28;19966;-78
2022/10/19 06:17:15;;;;;;;;;;;12.50;99.90;;;;;;5074259;28;19978;-77
2022/10/19 06:19:40;;;;;;;;;;;12.50;99.90;;;;;;5073120;28;20366;-77
2022/10/19 06:22:06;;;;;;;;;;;12.60;99.90;;;;;;5074224;28;20017;-77
2022/10/19 06:24:31;;;;;;;;;;;12.50;99.90;;;;;;5073539;28;19908;-76
2022/10/19 06:26:57;;;;;;;;;;;12.60;99.90;;;;;;5073294;28;19908;-76
2022/10/19 06:29:22;;;;;;;;;;;12.60;99.90;;;;;;5074014;28;19913;-77
2022/10/19 06:31:48;;;;;;;;;;;12.60;99.90;;;;;;5072894;28;19921;-76
2022/10/19 06:34:14;;;;;;;;;;;12.60;99.90;;;;;;5073785;28;19912;-76
2022/10/19 06:36:39;;;;;;;;;;;12.60;99.90;;;;;;5072848;28;19915;-76
2022/10/19 06:39:05;;;;;;;;;;;12.60;99.90;;;;;;5072288;28;19925;-76
2022/10/19 06:41:31;;;;;;;;;;;12.60;99.90;;;;;;5073982;28;19909;-75
2022/10/19 06:43:56;;;;;;;;;;;12.70;99.90;;;;;;5072806;28;20342;-77
2022/10/19 06:46:23;;;;;;;;;;;12.70;99.90;;;;;;5073380;28;19915;-76
2022/10/19 06:48:52;;;;;;;;;;;12.60;99.90;;;;;;5072998;28;19999;-76
2022/10/19 06:51:18;;;;;;;;;;;12.70;99.90;;;;;;5073538;28;19909;-76
2022/10/19 06:53:44;;;;;;;;;;;12.70;99.90;;;;;;5072837;28;19909;-75
2022/10/19 06:56:09;;;;;;;;;;;12.70;99.90;;;;;;5073371;28;19909;-76
2022/10/19 06:58:36;;;;;;;;;;;12.80;99.90;;;;;;5071184;28;19912;-76
2022/10/19 07:01:02;;;;;;;;;;;12.70;99.90;;;;;;5073316;28;20292;-76
2022/10/19 07:03:28;;;;;;;;;;;12.80;99.90;;;;;;5073085;28;19915;-75
2022/10/19 07:05:54;;;;;;;;;;;12.80;99.90;;;;;;5072703;28;20004;-75
2022/10/19 07:08:20;;;;;;;;;;;12.80;99.90;;;;;;5073546;28;19923;-74
2022/10/19 07:10:53;;;;;;;;;;;12.70;99.90;;;;;;5071338;28;20269;-79
2022/10/19 07:13:19;;;;;;;;;;;12.70;99.90;;;;;;5073025;28;19951;-80
2022/10/19 07:15:45;;;;;;;;;;;12.80;99.90;;;;;;5072690;28;19920;-81
2022/10/19 07:18:11;;;;;;;;;;;12.70;99.90;;;;;;5072034;28;19909;-77
2022/10/19 07:20:36;;;;;;;;;;;12.70;99.90;;;;;;5072424;28;20288;-76
2022/10/19 07:23:02;;;;;;;;;;;12.80;99.90;;;;;;5072981;28;19908;-76
2022/10/19 07:25:29;;;;;;;;;;;12.70;99.90;;;;;;5071957;28;20002;-74
2022/10/19 07:27:55;;;;;;;;;;;12.80;99.90;;;;;;5071965;28;20194;-75
2022/10/19 07:30:20;;;;;;;;;;;12.80;99.90;;;;;;5072767;28;20353;-76
2022/10/19 07:32:46;;;;;;;;;;;12.80;99.90;;;;;;5072157;28;19920;-76
2022/10/19 07:35:11;;;;;;;;;;;12.80;99.90;;;;;;5072928;28;20269;-76
2022/10/19 07:37:37;;;;;;;;;;;12.80;99.90;;;;;;5072772;28;20357;-76
2022/10/19 07:40:03;;;;;;;;;;;12.90;99.90;;;;;;5072790;28;19916;-75
2022/10/19 07:42:31;;;;;;;;;;;12.90;99.90;;;;;;5073003;28;19908;-75
2022/10/19 07:44:57;;;;;;;;;;;12.90;99.90;;;;;;5072397;28;20287;-75
2022/10/19 07:47:22;;;;;;;;;;;12.90;99.90;;;;;;5072932;28;19909;-76
2022/10/19 07:49:48;;;;;;;;;;;12.80;99.90;;;;;;5071863;28;19912;-76
2022/10/19 07:52:13;;;;;;;;;;;12.80;99.90;;;;;;5071536;28;20353;-76
2022/10/19 07:54:39;;;;;;;;;;;12.80;99.90;;;;;;5072118;28;19916;-74
2022/10/19 07:57:05;;;;;;;;;;;12.70;99.90;;;;;;5072724;28;19916;-75
2022/10/19 07:59:30;;;;;;;;;;;12.80;99.90;;;;;;5072727;28;19924;-76
2022/10/19 08:01:56;;;;;;;;;;;12.80;99.90;;;;;;5071951;28;19932;-75
2022/10/19 08:04:22;;;;;;;;;;;12.70;99.90;;;;;;5072362;28;19912;-75
2022/10/19 08:06:48;;;;;;;;;;;12.70;99.90;;;;;;5071714;28;19916;-75
2022/10/19 08:09:14;;;;;;;;;;;12.70;99.90;;;;;;5090394;28;19981;-75
2022/10/19 08:11:40;;;;;;;;;;;12.70;99.90;;;;;;5090739;28;20333;-76
2022/10/19 08:14:05;;;;;;;;;;;12.80;99.90;;;;;;5092783;28;19916;-74
2022/10/19 08:16:36;;;;;;;;;;;12.80;99.90;;;;;;5091763;28;19934;-75
2022/10/19 08:19:06;;;;;;;;;;;12.80;99.90;;;;;;5092185;28;19916;-75
2022/10/19 08:21:32;;;;;;;;;;;12.80;99.90;;;;;;5091208;28;19909;-75
2022/10/19 08:23:58;;;;;;;;;;;12.80;99.90;;;;;;5091981;28;20364;-75
2022/10/19 08:26:26;;;;;;;;;;;12.80;99.90;;;;;;5091826;28;19909;-75
2022/10/19 08:28:52;;;;;;;;;;;12.80;99.90;;;;;;5092239;28;19969;-75
2022/10/19 08:31:19;;;;;;;;;;;12.80;99.90;;;;;;5092412;28;19908;-76
2022/10/19 08:33:45;;;;;;;;;;;12.80;99.90;;;;;;5091812;28;20019;-76
2022/10/19 08:36:11;;;;;;;;;;;12.70;99.90;;;;;;5092568;28;19944;-75
2022/10/19 08:38:38;;;;;;;;;;;12.70;99.90;;;;;;5090424;28;20467;-75
2022/10/19 08:41:14;;;;;;;;;;;12.70;99.90;;;;;;5092568;28;19916;-75
2022/10/19 08:43:42;;;;;;;;;;;12.70;99.90;;;;;;5091583;28;20268;-76
2022/10/19 08:46:19;;;;;;;;;;;12.70;99.90;;;;;;5091613;28;19908;-74
2022/10/19 08:48:45;;;;;;;;;;;12.70;99.90;;;;;;5091505;28;19912;-74
2022/10/19 08:51:12;;;;;;;;;;;12.70;99.90;;;;;;5092710;28;19909;-75
2022/10/19 08:53:52;;;;;;;;;;;12.70;99.90;;;;;;5091711;28;19931;-75
2022/10/19 08:56:29;;;;;;;;;;;12.70;99.90;;;;;;5092206;28;19931;-74
2022/10/19 08:59:13;;;;;;;;;;;12.70;99.90;;;;;;5091841;28;20147;-74
2022/10/19 09:01:59;;;;;;;;;;;12.80;99.90;;;;;;5079134;28;20365;-75
2022/10/19 09:04:31;;;;;;;;;;;12.80;99.90;;;;;;5075672;28;19916;-73
2022/10/19 09:06:56;;;;;;;;;;;12.80;99.90;;;;;;5075154;28;19915;-75
2022/10/19 09:09:22;;;;;;;;;;;12.70;99.90;;;;;;5075509;28;19908;-74
2022/10/19 09:11:50;;;;;;;;;;;12.80;99.90;;;;;;5074618;28;19915;-74
2022/10/19 09:14:26;;;;;;;;;;;12.80;99.90;;;;;;5075012;28;19912;-75
2022/10/19 09:17:01;;;;;;;;;;;12.80;99.90;;;;;;5075037;28;19909;-73
2022/10/19 09:19:29;;;;;;;;;;;12.80;99.90;;;;;;5074860;28;19921;-75
2022/10/19 09:22:13;;;;;;;;;;;12.80;99.90;;;;;;5072829;28;20496;-75
2022/10/19 09:24:39;;;;;;;;;;;12.80;99.90;;;;;;5073711;28;19909;-74
2022/10/19 09:27:09;;;;;;;;;;;12.80;99.90;;;;;;5074244;28;19919;-74
2022/10/19 09:29:40;;;;;;;;;;;12.90;99.90;;;;;;5074225;28;19966;-74
2022/10/19 09:32:14;;;;;;;;;;;12.90;99.90;;;;;;5074618;28;19921;-74
2022/10/19 09:34:45;;;;;;;;;;;12.80;99.90;;;;;;5074104;28;19908;-74
2022/10/19 09:37:11;;;;;;;;;;;12.90;99.90;;;;;;5074498;28;19916;-75
2022/10/19 09:39:37;;;;;;;;;;;12.90;99.90;;;;;;5073774;28;19923;-74
2022/10/19 09:42:05;;;;;;;;;;;12.90;99.90;;;;;;5073785;28;20011;-74
2022/10/19 09:44:31;;;;;;;;;;;12.90;99.90;;;;;;5073832;28;20289;-74
2022/10/19 09:47:02;;;;;;;;;;;12.90;99.90;;;;;;5073619;28;19979;-74
2022/10/19 09:49:38;;;;;;;;;;;13.00;99.90;;;;;;5074613;28;19908;-75
2022/10/19 09:52:03;;;;;;;;;;;12.90;99.90;;;;;;5073149;28;19935;-74
2022/10/19 09:54:37;;;;;;;;;;;13.00;99.90;;;;;;5074306;28;19908;-75
2022/10/19 09:57:03;;;;;;;;;;;13.00;99.90;;;;;;5074194;28;19954;-75
2022/10/19 09:59:32;;;;;;;;;;;13.00;99.90;;;;;;5074137;28;19917;-74
2022/10/19 10:02:13;;;;;;;;;;;13.00;99.90;;;;;;5072698;28;19915;-86
2022/10/19 10:04:39;;;;;;;;;;;12.90;99.90;;;;;;5072890;28;19999;-86
2022/10/19 10:07:04;;;;;;;;;;;13.00;99.90;;;;;;5073407;28;20001;-86
2022/10/19 10:09:30;;;;;;;;;;;12.90;99.90;;;;;;5074353;28;19908;-87
2022/10/19 10:11:57;;;;;;;;;;;12.90;99.90;;;;;;5074080;28;20293;-84
2022/10/19 10:14:26;;;;;;;;;;;12.90;99.90;;;;;;5074374;28;19930;-82
2022/10/19 10:17:27;;;;;;;;;;;12.90;99.90;;;;;;5073359;28;19916;-79
2022/10/19 10:19:58;;;;;;;;;;;12.80;99.90;;;;;;5010817;28;20794;-76
2022/10/19 10:22:25;;;;;;;;;;;12.80;99.90;;;;;;5061916;28;19936;-75
2022/10/19 10:24:52;;;;;;;;;;;12.70;99.90;;;;;;5071726;28;19916;-74
2022/10/19 10:27:28;;;;;;;;;;;12.70;99.90;;;;;;5073271;28;19915;-75
2022/10/19 10:29:54;;;;;;;;;;;12.60;99.90;;;;;;5072707;28;20179;-77
2022/10/19 10:32:20;;;;;;;;;;;12.70;99.90;;;;;;5074122;28;19921;-77
2022/10/19 10:34:57;;;;;;;;;;;12.60;99.90;;;;;;5074350;28;19915;-75
2022/10/19 10:37:34;;;;;;;;;;;12.70;99.90;;;;;;5073313;28;19909;-76
2022/10/19 10:39:59;;;;;;;;;;;12.60;99.90;;;;;;5072981;28;19924;-76
2022/10/19 10:42:31;;;;;;;;;;;12.70;99.90;;;;;;5071018;28;19913;-76
2022/10/19 10:44:57;;;;;;;;;;;12.60;99.90;;;;;;5072348;28;19908;-75
2022/10/19 10:47:24;;;;;;;;;;;12.60;99.90;;;;;;5072791;28;19987;-74
2022/10/19 10:49:59;;;;;;;;;;;12.60;99.90;;;;;;5072310;28;19908;-74
2022/10/19 10:52:27;;;;;;;;;;;12.50;99.90;;;;;;5073195;28;20369;-75
2022/10/19 10:54:58;;;;;;;;;;;12.60;99.90;;;;;;5072480;28;19948;-74
2022/10/19 10:57:27;;;;;;;;;;;12.60;99.90;;;;;;5071524;28;19965;-74
2022/10/19 11:00:12;;;;;;;;;;;12.50;99.90;;;;;;5071678;28;20861;-74
2022/10/19 11:02:48;;;;;;;;;;;12.60;99.90;;;;;;5071687;28;20269;-74
2022/10/19 11:05:18;;;;;;;;;;;12.50;99.90;;;;;;5071374;28;20400;-74
2022/10/19 11:07:48;;;;;;;;;;;12.70;99.90;;;;;;5070842;28;19909;-75
2022/10/19 11:10:23;;;;;;;;;;;12.60;99.90;;;;;;5072670;28;19908;-73
2022/10/19 11:13:00;;;;;;;;;;;12.60;99.90;;;;;;5071993;28;19909;-74
2022/10/19 11:15:43;;;;;;;;;;;12.60;99.90;;;;;;5072721;28;19909;-74
2022/10/19 11:18:08;;;;;;;;;;;12.70;99.90;;;;;;5071296;28;19924;-74
2022/10/19 11:20:34;;;;;;;;;;;12.70;99.90;;;;;;5072084;28;19923;-75
2022/10/19 11:23:12;;;;;;;;;;;12.60;99.90;;;;;;5071410;28;19909;-75
2022/10/19 11:25:50;;;;;;;;;;;12.60;99.90;;;;;;5071358;28;19915;-75
2022/10/19 11:28:21;;;;;;;;;;;12.70;99.90;;;;;;5071972;28;19914;-75
2022/10/19 11:30:50;;;;;;;;;;;12.70;99.90;;;;;;5071934;28;20021;-73
2022/10/19 11:33:25;;;;;;;;;;;12.70;99.90;;;;;;5072080;28;19932;-74
2022/10/19 11:35:52;;;;;;;;;;;12.70;99.90;;;;;;5071771;28;20716;-74
2022/10/19 11:38:27;;;;;;;;;;;12.70;99.90;;;;;;5072239;28;19908;-74
2022/10/19 11:41:11;;;;;;;;;;;12.80;99.90;;;;;;5071521;28;20330;-75
2022/10/19 11:43:57;;;;;;;;;;;12.70;99.90;;;;;;5071556;28;20389;-75
2022/10/19 11:46:41;;;;;;;;;;;12.80;99.90;;;;;;5071802;28;20438;-75
2022/10/19 11:49:07;;;;;;;;;;;12.70;99.90;;;;;;5070614;28;19953;-74
2022/10/19 11:51:56;;;;;;;;;;;12.80;99.90;;;;;;5072636;28;19917;-74
2022/10/19 11:54:34;;;;;;;;;;;12.80;99.90;;;;;;5062352;28;19999;-74
2022/10/19 11:57:06;;;;;;;;;;;12.70;99.90;;;;;;5071392;28;20010;-74
2022/10/19 11:59:34;;;;;;;;;;;12.70;99.90;;;;;;5072262;28;19924;-75
2022/10/19 12:02:12;;;;;;;;;;;12.70;99.90;;;;;;5072149;28;20003;-75
2022/10/19 12:04:47;;;;;;;;;;;12.60;99.90;;;;;;5074461;28;19927;-76
2022/10/19 12:07:23;;;;;;;;;;;12.50;99.90;;;;;;5095162;28;19915;-84
2022/10/19 12:09:52;;;;;;;;;;;12.50;99.90;;;;;;5096321;28;19915;-85
2022/10/19 12:12:22;;;;;;;;;;;12.50;99.90;;;;;;5093439;28;19955;-86
2022/10/19 12:14:50;;;;;;;;;;;12.40;99.90;;;;;;5093062;28;19936;-86
2022/10/19 12:17:30;;;;;;;;;;;12.50;99.90;;;;;;5095775;28;19912;-84
2022/10/19 12:19:58;;;;;;;;;;;12.50;99.90;;;;;;5093218;28;19916;-80
2022/10/19 12:22:27;;;;;;;;;;;12.50;99.90;;;;;;5092350;28;19908;-80
2022/10/19 12:24:54;;;;;;;;;;;12.50;99.90;;;;;;5092094;28;19914;-85
2022/10/19 12:27:31;;;;;;;;;;;12.40;99.90;;;;;;5093486;28;19969;-85
2022/10/19 12:30:00;;;;;;;;;;;12.40;99.90;;;;;;5091845;28;19908;-83
2022/10/19 12:32:27;;;;;;;;;;;12.40;99.90;;;;;;5092725;28;19924;-84
2022/10/19 12:34:59;;;;;;;;;;;12.30;99.90;;;;;;5091505;28;19915;-86
2022/10/19 12:37:30;;;;;;;;;;;12.30;99.90;;;;;;5095470;28;19908;-83
2022/10/19 12:39:59;;;;;;;;;;;12.30;99.90;;;;;;5094700;28;19919;-86
2022/10/19 12:42:41;;;;;;;;;;;12.30;99.90;;;;;;5094543;28;20353;-83
2022/10/19 12:45:13;;;;;;;;;;;12.30;99.90;;;;;;5095138;28;19909;-85
2022/10/19 12:47:39;;;;;;;;;;;12.40;99.90;;;;;;5094577;28;19907;-85
2022/10/19 12:50:04;;;;;;;;;;;12.30;99.90;;;;;;5095133;28;19909;-84
2022/10/19 12:52:33;;;;;;;;;;;12.30;99.90;;;;;;5095447;28;19908;-82
2022/10/19 12:55:14;;;;;;;;;;;12.40;99.90;;;;;;5094690;28;19999;-83
2022/10/19 12:57:42;;;;;;;;;;;12.30;99.90;;;;;;5095356;28;19908;-83
2022/10/19 13:00:19;;;;;;;;;;;12.30;99.90;;;;;;5094854;28;19916;-81
2022/10/19 13:02:45;;;;;;;;;;;12.40;99.90;;;;;;5093287;28;19995;-80
2022/10/19 13:05:21;;;;;;;;;;;12.30;99.90;;;;;;5095851;28;19908;-77
2022/10/19 13:07:48;;;;;;;;;;;12.40;99.90;;;;;;5094214;28;19908;-75
2022/10/19 13:10:22;;;;;;;;;;;12.40;99.90;;;;;;5095781;28;19962;-73
2022/10/19 13:12:48;;;;;;;;;;;12.30;99.90;;;;;;5095302;28;19908;-74
2022/10/19 13:15:32;;;;;;;;;;;12.40;99.90;;;;;;5096411;28;19908;-73
2022/10/19 13:17:57;;;;;;;;;;;12.30;99.90;;;;;;5095044;28;20396;-74
2022/10/19 13:20:24;;;;;;;;;;;12.30;99.90;;;;;;5095514;28;19916;-73
2022/10/19 13:22:58;;;;;;;;;;;12.30;99.90;;;;;;5094573;28;19916;-74
2022/10/19 13:25:28;;;;;;;;;;;12.20;99.90;;;;;;5095086;28;19908;-73
2022/10/19 13:28:06;;;;;;;;;;;12.20;99.90;;;;;;5094823;28;19912;-73
2022/10/19 13:30:35;;;;;;;;;;;12.20;99.90;;;;;;5095385;28;19908;-74
2022/10/19 13:33:19;;;;;;;;;;;12.20;99.90;;;;;;5094432;28;19920;-73
2022/10/19 13:35:45;;;;;;;;;;;12.10;99.90;;;;;;5094213;28;20330;-73
2022/10/19 13:38:16;;;;;;;;;;;12.30;99.90;;;;;;5095580;28;19912;-74
2022/10/19 13:40:48;;;;;;;;;;;12.10;99.90;;;;;;5094556;28;19916;-73
2022/10/19 13:43:21;;;;;;;;;;;12.20;99.90;;;;;;5094365;28;20392;-73
2022/10/19 13:46:13;;;;;;;;;;;12.20;99.90;;;;;;5094295;28;19969;-73
2022/10/19 13:48:57;;;;;;;;;;;12.20;99.90;;;;;;5070066;28;19995;-74
2022/10/19 13:51:41;;;;;;;;;;;12.20;99.90;;;;;;5094691;28;19908;-73
2022/10/19 13:54:18;;;;;;;;;;;12.20;99.90;;;;;;5094652;28;20000;-73
2022/10/19 13:56:52;;;;;;;;;;;12.20;99.90;;;;;;5094327;28;19908;-73
2022/10/19 13:59:21;;;;;;;;;;;12.20;99.90;;;;;;5093542;28;19916;-74
2022/10/19 14:01:56;;;;;;;;;;;12.10;99.90;;;;;;5094057;28;19969;-74
2022/10/19 14:04:40;;;;;;;;;;;12.20;99.90;;;;;;5094698;28;20028;-74
2022/10/19 14:07:10;;;;;;;;;;;12.20;99.90;;;;;;5094434;28;19908;-73
2022/10/19 14:09:47;;;;;;;;;;;12.20;99.90;;;;;;5094250;28;19969;-76
2022/10/19 14:12:12;;;;;;;;;;;12.10;99.90;;;;;;5094713;28;19914;-73
2022/10/19 14:14:39;;;;;;;;;;;12.20;99.90;;;;;;5094131;28;19908;-74
2022/10/19 14:17:26;;;;;;;;;;;12.10;99.90;;;;;;5094398;28;20129;-74
2022/10/19 14:19:53;;;;;;;;;;;12.10;99.90;;;;;;5075646;28;20350;-74
2022/10/19 14:22:25;;;;;;;;;;;12.30;99.90;;;;;;5093537;28;19915;-73
2022/10/19 14:24:50;;;;;;;;;;;12.30;99.90;;;;;;5093448;28;19978;-74
2022/10/19 14:27:18;;;;;;;;;;;12.30;99.90;;;;;;5094623;28;20377;-74